createdAt,value
2022-11-16T00:03:49.095Z,6.97
2022-11-16T00:09:14.468Z,10.02
2022-11-16T00:14:16.291Z,8.50
2022-11-16T00:19:18.197Z,9.52
2022-11-16T00:24:22.512Z,6.90
2022-11-16T00:29:26.940Z,7.97
2022-11-16T00:34:29.047Z,14.90
2022-11-16T00:39:30.926Z,9.13
2022-11-16T00:44:32.729Z,9.15
2022-11-16T00:49:34.600Z,6.97
2022-11-16T00:54:36.573Z,9.43
2022-11-16T00:59:38.784Z,6.82
2022-11-16T01:04:40.601Z,7.95
2022-11-16T01:09:42.415Z,6.28
2022-11-16T01:14:47.720Z,7.82
2022-11-16T01:19:49.529Z,7.28
2022-11-16T01:24:51.368Z,8.43
2022-11-16T01:29:53.714Z,8.27
2022-11-16T01:34:55.614Z,7.18
2022-11-16T01:40:08.180Z,8.20
2022-11-16T01:45:36.135Z,6.00
2022-11-16T01:50:42.524Z,6.97
2022-11-16T01:55:47.720Z,6.22
2022-11-16T02:01:07.907Z,6.00
2022-11-16T02:06:29.504Z,5.45
2022-11-16T02:12:32.166Z,6.22
2022-11-16T02:18:11.066Z,9.48
2022-11-16T02:24:03.035Z,8.23
2022-11-16T02:29:29.942Z,5.90
2022-11-16T02:34:44.427Z,5.95
2022-11-16T02:39:50.342Z,6.10
2022-11-16T02:44:55.022Z,8.98
2022-11-16T02:50:02.927Z,8.02
2022-11-16T03:00:11.162Z,6.35
2022-11-16T03:05:19.191Z,6.85
2022-11-16T03:10:48.276Z,7.22
2022-11-16T03:15:52.318Z,6.82
2022-11-16T03:21:03.184Z,7.40
2022-11-16T03:26:08.692Z,8.52
2022-11-16T03:31:21.074Z,8.30
2022-11-16T03:36:31.323Z,6.18
2022-11-16T03:41:37.561Z,8.38
2022-11-16T03:46:42.527Z,7.22
2022-11-16T03:51:46.224Z,7.88
2022-11-16T03:56:48.291Z,9.27
2022-11-16T04:01:50.530Z,11.10
2022-11-16T04:07:10.993Z,9.63
2022-11-16T04:12:32.110Z,9.65
2022-11-16T04:17:52.459Z,8.45
2022-11-16T04:23:31.360Z,8.63
2022-11-16T04:28:35.794Z,7.90
2022-11-16T04:33:59.276Z,10.98
2022-11-16T04:39:03.618Z,6.75
2022-11-16T04:44:05.651Z,7.70
2022-11-16T04:49:09.782Z,9.25
2022-11-16T04:54:13.932Z,7.28
2022-11-16T04:59:16.734Z,4.97
2022-11-16T05:04:19.174Z,6.72
2022-11-16T05:09:22.241Z,9.07
2022-11-16T05:14:24.193Z,7.40
2022-11-16T05:19:45.048Z,6.00
2022-11-16T05:24:47.237Z,6.57
2022-11-16T05:29:52.421Z,7.55
2022-11-16T05:40:00.217Z,10.80
2022-11-16T05:45:17.159Z,8.30
2022-11-16T05:50:22.883Z,6.10
2022-11-16T05:55:38.837Z,6.68
2022-11-16T06:00:41.469Z,9.50
2022-11-16T06:05:45.584Z,5.90
2022-11-16T06:10:50.196Z,6.10
2022-11-16T06:15:52.466Z,5.68
2022-11-16T06:20:55.041Z,6.07
2022-11-16T06:25:57.314Z,7.32
2022-11-16T06:31:02.734Z,6.68
2022-11-16T06:36:08.809Z,6.40
2022-11-16T06:41:12.316Z,5.18
2022-11-16T06:46:19.171Z,6.10
2022-11-16T06:51:23.007Z,7.57
2022-11-16T06:56:24.923Z,6.00
2022-11-16T07:01:30.773Z,6.85
2022-11-16T07:06:39.364Z,8.05
2022-11-16T07:11:43.427Z,6.00
2022-11-16T07:16:45.834Z,7.22
2022-11-16T07:21:48.194Z,8.35
2022-11-16T07:26:53.436Z,8.00
2022-11-16T07:31:58.818Z,7.90
2022-11-16T07:37:23.520Z,6.75
2022-11-16T07:42:26.408Z,9.50
2022-11-16T07:53:16.698Z,9.60
2022-11-16T07:58:20.184Z,6.88
2022-11-16T08:03:24.750Z,8.45
2022-11-16T08:08:29.604Z,7.50
2022-11-16T08:13:34.327Z,8.80
2022-11-16T08:18:38.446Z,7.65
2022-11-16T08:23:41.646Z,7.20
2022-11-16T08:28:46.094Z,7.65
2022-11-16T08:33:48.893Z,6.65
2022-11-16T08:38:52.380Z,6.95
2022-11-16T08:43:56.220Z,8.85
2022-11-16T08:48:58.525Z,6.63
2022-11-16T08:54:01.704Z,5.72
2022-11-16T08:59:03.899Z,10.85
2022-11-16T09:04:06.075Z,10.90
2022-11-16T09:09:07.942Z,6.30
2022-11-16T09:14:09.869Z,8.40
2022-11-16T09:19:11.898Z,8.32
2022-11-16T09:24:13.765Z,7.20
2022-11-16T09:29:16.005Z,6.50
2022-11-16T09:34:18.956Z,7.18
2022-11-16T09:39:36.321Z,4.93
2022-11-16T09:44:55.604Z,8.02
2022-11-16T09:50:03.884Z,7.45
2022-11-16T09:55:30.984Z,6.93
2022-11-16T10:00:35.130Z,6.18
2022-11-16T10:05:43.732Z,6.32
2022-11-16T10:10:57.616Z,4.05
2022-11-16T10:16:16.736Z,6.72
2022-11-16T10:21:21.724Z,8.32
2022-11-16T10:26:56.950Z,7.00
2022-11-16T10:32:26.493Z,6.55
2022-11-16T10:37:32.007Z,6.57
2022-11-16T10:42:39.384Z,6.68
2022-11-16T10:47:56.565Z,6.28
2022-11-16T10:53:00.183Z,6.10
2022-11-16T10:58:05.510Z,6.05
2022-11-16T11:03:12.115Z,4.65
2022-11-16T11:08:26.246Z,8.80
2022-11-16T11:13:28.131Z,9.48
2022-11-16T11:18:30.261Z,7.18
2022-11-16T11:23:42.655Z,5.63
2022-11-16T11:28:50.113Z,5.07
2022-11-16T11:34:03.184Z,8.20
2022-11-16T11:39:28.351Z,8.15
2022-11-16T11:44:38.753Z,4.45
2022-11-16T11:49:50.117Z,7.18
2022-11-16T11:54:54.422Z,8.05
2022-11-16T11:59:56.385Z,6.78
2022-11-16T12:05:10.981Z,7.75
2022-11-16T12:10:36.736Z,3.88
2022-11-16T12:15:48.978Z,4.82
2022-11-16T12:21:14.186Z,4.65
2022-11-16T12:26:22.184Z,5.63
2022-11-16T12:36:49.741Z,6.28
2022-11-16T12:42:08.808Z,4.22
2022-11-16T12:47:18.013Z,5.53
2022-11-16T12:52:19.905Z,5.85
2022-11-16T12:57:30.584Z,3.40
2022-11-16T13:03:00.258Z,6.32
2022-11-16T13:08:11.113Z,3.72
2022-11-16T13:13:36.368Z,4.10
2022-11-16T13:18:42.643Z,5.70
2022-11-16T13:24:18.363Z,4.35
2022-11-16T13:29:32.426Z,8.70
2022-11-16T13:34:37.762Z,5.10
2022-11-16T13:40:06.629Z,6.82
2022-11-16T13:45:22.318Z,10.27
2022-11-16T13:50:48.685Z,5.15
2022-11-16T13:56:05.633Z,5.45
2022-11-16T14:01:16.124Z,4.47
2022-11-16T14:06:23.865Z,7.30
2022-11-16T14:11:40.132Z,7.35
2022-11-16T14:16:43.610Z,6.18
2022-11-16T14:22:15.293Z,10.05
2022-11-16T14:27:51.121Z,9.48
2022-11-16T14:32:56.203Z,8.32
2022-11-16T14:38:05.171Z,8.20
2022-11-16T14:43:17.174Z,11.32
2022-11-16T14:48:21.801Z,8.43
2022-11-16T14:53:25.152Z,10.88
2022-11-16T14:58:27.143Z,7.68
2022-11-16T15:03:34.426Z,14.15
2022-11-16T15:09:02.446Z,15.45
2022-11-16T15:14:04.567Z,9.77
2022-11-16T15:19:12.671Z,9.48
2022-11-16T15:24:30.398Z,9.90
2022-11-16T15:29:33.569Z,12.75
2022-11-16T15:34:39.313Z,12.73
2022-11-16T15:39:42.227Z,16.15
2022-11-16T15:44:44.924Z,11.20
2022-11-16T15:49:49.865Z,17.08
2022-11-16T15:55:03.789Z,37.63
2022-11-16T16:00:08.371Z,41.90
2022-11-16T16:05:38.996Z,47.45
2022-11-16T16:10:40.769Z,22.92
2022-11-16T16:15:42.637Z,17.92
2022-11-16T16:20:48.563Z,117.45
2022-11-16T16:25:50.920Z,57.05
2022-11-16T16:30:52.821Z,61.65
2022-11-16T16:35:54.572Z,90.40
2022-11-16T16:41:06.450Z,52.15
2022-11-16T16:46:11.908Z,18.80
2022-11-16T16:51:14.009Z,20.10
2022-11-16T16:56:17.462Z,8.82
2022-11-16T17:01:19.337Z,12.70
2022-11-16T17:06:21.287Z,10.63
2022-11-16T17:11:23.805Z,14.93
2022-11-16T17:16:26.222Z,16.92
2022-11-16T17:21:28.168Z,18.63
2022-11-16T17:26:30.211Z,15.40
2022-11-16T17:31:32.064Z,24.17
2022-11-16T17:36:33.962Z,12.07
2022-11-16T17:41:35.904Z,23.70
2022-11-16T17:46:37.805Z,16.30
2022-11-16T17:51:39.576Z,13.15
2022-11-16T17:56:41.459Z,26.13
2022-11-16T18:01:43.271Z,16.08
2022-11-16T18:06:45.060Z,15.52
2022-11-16T18:11:47.029Z,15.77
2022-11-16T18:16:48.912Z,16.40
2022-11-16T18:21:50.809Z,14.75
2022-11-16T18:26:52.710Z,10.30
2022-11-16T18:31:54.615Z,17.05
2022-11-16T18:36:56.433Z,18.17
2022-11-16T18:41:58.234Z,15.20
2022-11-16T18:47:03.186Z,12.10
2022-11-16T18:52:05.161Z,12.18
2022-11-16T18:57:07.344Z,12.63
2022-11-16T19:02:12.743Z,11.35
2022-11-16T19:07:14.726Z,15.35
2022-11-16T19:12:16.642Z,13.07
2022-11-16T19:17:20.496Z,11.30
2022-11-16T19:22:22.380Z,13.02
2022-11-16T19:27:24.330Z,8.88
2022-11-16T19:32:26.315Z,15.02
2022-11-16T19:37:28.068Z,11.73
2022-11-16T19:42:29.955Z,10.27
2022-11-16T19:47:31.716Z,9.98
2022-11-16T19:52:33.480Z,6.47
2022-11-16T19:57:35.326Z,6.07
2022-11-16T20:02:38.903Z,5.32
2022-11-16T20:07:40.759Z,4.60
2022-11-16T20:12:43.630Z,5.15
2022-11-16T20:17:45.534Z,4.15
2022-11-16T20:22:48.833Z,3.47
2022-11-16T20:27:50.628Z,4.55
2022-11-16T20:32:52.501Z,4.90
2022-11-16T20:37:54.461Z,2.38
2022-11-16T20:42:59.332Z,3.38
2022-11-16T20:48:01.160Z,5.10
2022-11-16T20:53:02.932Z,2.67
2022-11-16T20:58:04.682Z,2.47
2022-11-16T21:03:06.532Z,3.83
2022-11-16T21:08:08.408Z,4.13
2022-11-16T21:13:32.318Z,2.05
2022-11-16T21:18:34.906Z,3.10
2022-11-16T21:23:37.317Z,3.35
2022-11-16T21:28:40.160Z,4.43
2022-11-16T21:33:44.856Z,2.85
2022-11-16T21:38:47.015Z,3.13
2022-11-16T21:43:49.058Z,3.58
2022-11-16T21:48:51.251Z,3.17
2022-11-16T21:53:53.396Z,3.40
2022-11-16T21:58:55.317Z,2.80
2022-11-16T22:04:15.590Z,2.95
2022-11-16T22:09:17.526Z,3.08
2022-11-16T22:14:19.406Z,6.18
2022-11-16T22:19:21.316Z,3.17
2022-11-16T22:24:23.058Z,1.98
2022-11-16T22:29:24.916Z,2.35
2022-11-16T22:34:26.719Z,3.92
2022-11-16T22:39:28.591Z,4.20
2022-11-16T22:44:30.460Z,3.55
2022-11-16T22:49:32.548Z,5.13
2022-11-16T22:54:37.900Z,2.95
2022-11-16T22:59:39.708Z,2.35
2022-11-16T23:04:41.545Z,3.63
2022-11-16T23:09:43.399Z,6.40
2022-11-16T23:15:03.640Z,4.82
2022-11-16T23:20:24.400Z,4.10
2022-11-16T23:25:44.636Z,5.07
2022-11-16T23:30:46.481Z,2.78
2022-11-16T23:35:48.286Z,3.42
2022-11-16T23:40:50.094Z,3.35
2022-11-16T23:45:52.090Z,3.30
2022-11-16T23:50:53.955Z,3.35
2022-11-16T23:56:06.113Z,3.78
